Terminal Aerodrome Forecast
Issued by NWS Brownsville, TX

Home | Current Version | Previous Version | Text Only | Print | Product List | Glossary On
Versions: 1 2 3 4 5 6 7 8 9 10 11 12
000
FTUS44 KBRO 280500
TAFMFE
TAF
KMFE 280525Z 2806/2906 14008KT P6SM SCT020
      TEMPO 2806/2810 BKN020
     FM281400 15012G18KT P6SM FEW030
     FM282200 13014G20KT P6SM SKC=

USA.gov is the U.S. government's official web portal to all federal, state and local government web resources and services.